Portada
METAR-TAF:

METAR-TAF

Aeroports :

Nairobi, Kenya

latitud: 01-19S, longitud: 036-49E, altitud: 1683 m

Observació

L'informe es va fer fa 33 minuts, a les 10:00 UTC
Vent 8 kt del Est
Temperatura 24°C
Humitat 38%
Pressió 1021 hPa
Visibilitat 10 km o més
Escasses núvols a una alçada de 2600 ft
Núvols disperses a una alçada de 24000 ft

METAR: HKNW 171000Z 10008KT 9999 FEW026 SCT240 24/09 Q1021

Hora: 13:33 (10:33 UTC)


TAF: manca

Observacions i pronòstics meteorològics de més de 4000 aeroports (METAR i TAF).

Les estacions disponibles són els punts grocs i vermells al mapa.

Posi el ratolí al punt desitjat per veure el nom de l'estació.

Feu clic per veure les observacions i els pronòstics meteorològics.

Per canviar el mapa: feu clic els botons verds amb una creu de color negre per apropar; al botó verd amb un guió per allunyar la imatge; o en les fletxes verdes per a mapes adjacents.


METAR-TAF: